createdAt,value
2022-11-17T00:00:42.227Z,81.70
2022-11-17T00:03:14.837Z,74.22
2022-11-17T00:05:41.722Z,74.07
2022-11-17T00:08:08.601Z,86.90
2022-11-17T00:10:35.567Z,87.55
2022-11-17T00:13:20.894Z,96.10
2022-11-17T00:15:47.960Z,112.43
2022-11-17T00:18:33.044Z,84.18
2022-11-17T00:21:23.931Z,76.43
2022-11-17T00:23:51.112Z,79.13
2022-11-17T00:26:20.711Z,78.20
2022-11-17T00:28:51.682Z,80.85
2022-11-17T00:31:36.884Z,81.43
2022-11-17T00:34:06.870Z,90.40
2022-11-17T00:36:48.439Z,79.78
2022-11-17T00:39:16.716Z,66.18
2022-11-17T00:41:44.202Z,75.20
2022-11-17T00:44:11.428Z,78.43
2022-11-17T00:46:39.614Z,89.28
2022-11-17T00:49:07.719Z,63.70
2022-11-17T00:51:35.137Z,70.13
2022-11-17T00:54:02.827Z,66.75
2022-11-17T00:56:29.673Z,58.55
2022-11-17T00:58:56.985Z,61.88
2022-11-17T01:01:24.676Z,58.03
2022-11-17T01:03:51.959Z,55.70
2022-11-17T01:06:20.687Z,60.42
2022-11-17T01:08:47.735Z,63.90
2022-11-17T01:11:17.639Z,56.28
2022-11-17T01:13:47.284Z,62.83
2022-11-17T01:16:19.553Z,56.92
2022-11-17T01:18:48.288Z,57.20
2022-11-17T01:21:18.861Z,64.82
2022-11-17T01:23:46.622Z,61.88
2022-11-17T01:26:16.882Z,61.53
2022-11-17T01:28:44.618Z,59.35
2022-11-17T01:31:16.935Z,55.55
2022-11-17T01:33:44.449Z,62.95
2022-11-17T01:36:20.689Z,58.22
2022-11-17T01:38:47.624Z,64.43
2022-11-17T01:41:17.498Z,71.55
2022-11-17T01:44:40.213Z,70.43
2022-11-17T01:47:16.684Z,82.10
2022-11-17T01:49:45.241Z,74.47
2022-11-17T01:52:13.212Z,64.85
2022-11-17T01:54:42.418Z,64.47
2022-11-17T01:57:18.120Z,67.20
2022-11-17T01:59:54.000Z,69.40
2022-11-17T02:02:21.420Z,55.17
2022-11-17T02:05:02.134Z,80.95
2022-11-17T02:07:34.413Z,71.43
2022-11-17T02:10:02.793Z,62.85
2022-11-17T02:12:32.259Z,55.80
2022-11-17T02:15:06.980Z,59.08
2022-11-17T02:17:41.670Z,66.28
2022-11-17T02:20:15.357Z,75.05
2022-11-17T02:23:23.677Z,73.40
2022-11-17T02:26:09.332Z,59.38
2022-11-17T02:28:42.528Z,80.53
2022-11-17T02:31:30.856Z,67.68
2022-11-17T02:34:12.127Z,96.43
2022-11-17T02:37:02.080Z,92.90
2022-11-17T02:39:44.125Z,139.93
2022-11-17T02:42:18.564Z,173.63
2022-11-17T02:44:57.643Z,75.95
2022-11-17T02:47:29.446Z,86.05
2022-11-17T02:50:04.009Z,105.18
2022-11-17T02:52:31.685Z,190.73
2022-11-17T02:55:06.375Z,97.57
2022-11-17T02:57:41.296Z,88.13
2022-11-17T03:00:15.257Z,70.40
2022-11-17T03:03:23.477Z,139.25
2022-11-17T03:06:04.011Z,79.47
2022-11-17T03:09:10.474Z,84.50
2022-11-17T03:11:48.587Z,98.20
2022-11-17T03:14:27.738Z,82.15
2022-11-17T03:17:06.867Z,197.38
2022-11-17T03:19:41.501Z,121.25
2022-11-17T03:22:16.201Z,1738.65
2022-11-17T03:24:52.535Z,1152.32
2022-11-17T03:27:27.114Z,501.17
2022-11-17T03:30:06.969Z,325.75
2022-11-17T03:32:38.799Z,409.95
2022-11-17T03:35:10.427Z,1092.88
2022-11-17T03:37:42.819Z,1246.10
2022-11-17T03:40:12.995Z,374.55
2022-11-17T03:45:20.897Z,192.35
2022-11-17T03:47:50.426Z,533.42
2022-11-17T03:50:24.209Z,750.00
2022-11-17T03:52:52.367Z,254.23
2022-11-17T03:55:19.594Z,104.82
2022-11-17T03:57:50.994Z,225.30
2022-11-17T04:00:19.560Z,192.13
2022-11-17T04:02:53.630Z,122.78
2022-11-17T04:05:20.597Z,150.25
2022-11-17T04:07:48.426Z,89.05
2022-11-17T04:10:17.859Z,87.13
2022-11-17T04:13:03.618Z,73.43
2022-11-17T04:15:49.266Z,78.03
2022-11-17T04:18:16.440Z,104.45
2022-11-17T04:20:43.510Z,144.85
2022-11-17T04:23:15.873Z,68.18
2022-11-17T04:26:06.591Z,280.58
2022-11-17T04:28:38.353Z,175.32
2022-11-17T04:31:23.202Z,517.45
2022-11-17T04:34:01.981Z,99.90
2022-11-17T04:36:43.705Z,171.25
2022-11-17T04:39:11.943Z,713.05
2022-11-17T04:41:54.537Z,1362.43
2022-11-17T04:44:26.395Z,1523.55
2022-11-17T04:46:54.715Z,1262.43
2022-11-17T04:49:23.278Z,854.47
2022-11-17T04:51:52.295Z,755.60
2022-11-17T04:54:22.282Z,347.08
2022-11-17T04:56:49.224Z,232.63
2022-11-17T04:59:16.077Z,102.60
2022-11-17T05:01:43.793Z,81.15
2022-11-17T05:04:35.725Z,777.90
2022-11-17T05:07:03.038Z,426.73
2022-11-17T05:09:31.138Z,983.33
2022-11-17T05:12:23.307Z,1499.35
2022-11-17T05:14:50.666Z,243.23
2022-11-17T05:17:17.836Z,1029.00
2022-11-17T05:19:46.974Z,438.92
2022-11-17T05:22:40.417Z,369.38
2022-11-17T05:25:08.044Z,170.32
2022-11-17T05:27:35.616Z,168.77
2022-11-17T05:30:05.198Z,819.13
2022-11-17T05:32:32.184Z,259.35
2022-11-17T05:34:59.133Z,279.08
2022-11-17T05:37:26.024Z,842.15
2022-11-17T05:39:52.956Z,157.70
2022-11-17T05:42:19.862Z,186.05
2022-11-17T05:44:48.658Z,317.08
2022-11-17T05:47:16.295Z,192.88
2022-11-17T05:49:43.133Z,247.80
2022-11-17T05:52:09.970Z,141.95
2022-11-17T05:54:36.825Z,219.90
2022-11-17T05:57:12.197Z,516.63
2022-11-17T05:59:53.136Z,246.30
2022-11-17T06:02:26.906Z,258.10
2022-11-17T06:04:53.832Z,144.90
2022-11-17T06:07:20.957Z,445.98
2022-11-17T06:09:48.040Z,695.55
2022-11-17T06:12:15.674Z,897.33
2022-11-17T06:14:42.907Z,1120.50
2022-11-17T06:17:21.813Z,706.45
2022-11-17T06:19:58.381Z,170.18
2022-11-17T06:22:27.193Z,289.67
2022-11-17T06:24:55.223Z,340.67
2022-11-17T06:27:22.923Z,434.52
2022-11-17T06:29:50.282Z,900.53
2022-11-17T06:32:19.225Z,445.70
2022-11-17T06:34:53.855Z,92.55
2022-11-17T06:37:23.080Z,529.40
2022-11-17T06:39:50.741Z,232.30
2022-11-17T06:42:17.578Z,958.30
2022-11-17T06:44:44.469Z,769.40
2022-11-17T06:47:11.356Z,542.83
2022-11-17T06:49:38.260Z,204.60
2022-11-17T06:52:05.272Z,489.10
2022-11-17T06:54:32.228Z,759.55
2022-11-17T06:56:59.147Z,385.23
2022-11-17T06:59:26.060Z,738.00
2022-11-17T07:01:53.191Z,717.45
2022-11-17T07:04:20.104Z,834.55
2022-11-17T07:06:47.116Z,1076.90
2022-11-17T07:09:13.940Z,558.72
2022-11-17T07:11:40.837Z,506.30
2022-11-17T07:14:07.855Z,472.00
2022-11-17T07:16:34.939Z,928.65
2022-11-17T07:19:03.942Z,408.30
2022-11-17T07:21:31.609Z,538.22
2022-11-17T07:23:58.612Z,250.85
2022-11-17T07:26:25.559Z,305.02
2022-11-17T07:28:52.616Z,266.33
2022-11-17T07:31:20.826Z,218.48
2022-11-17T07:33:47.998Z,602.70
2022-11-17T07:36:15.460Z,475.70
2022-11-17T07:38:42.776Z,281.63
2022-11-17T07:41:12.501Z,585.72
2022-11-17T07:43:39.685Z,288.63
2022-11-17T07:46:08.708Z,181.30
2022-11-17T07:48:35.989Z,190.70
2022-11-17T07:51:04.702Z,347.17
2022-11-17T07:53:33.561Z,95.30
2022-11-17T07:56:18.398Z,95.75
2022-11-17T07:58:45.279Z,105.15
2022-11-17T08:01:17.409Z,46.63
2022-11-17T08:03:44.868Z,66.07
2022-11-17T08:06:12.068Z,284.38
2022-11-17T08:08:39.964Z,179.90
2022-11-17T08:11:12.625Z,46.00
2022-11-17T08:13:40.911Z,41.65
2022-11-17T08:16:09.849Z,89.22
2022-11-17T08:18:37.902Z,36.53
2022-11-17T08:21:07.171Z,67.40
2022-11-17T08:23:34.673Z,55.22
2022-11-17T08:26:05.607Z,29.73
2022-11-17T08:28:34.232Z,30.55
2022-11-17T08:31:02.886Z,67.15
2022-11-17T08:33:30.128Z,47.20
2022-11-17T08:36:01.561Z,43.63
2022-11-17T08:38:31.855Z,73.13
2022-11-17T08:41:02.246Z,72.78
2022-11-17T08:43:29.416Z,130.00
2022-11-17T08:45:56.875Z,56.35
2022-11-17T08:48:24.392Z,64.05
2022-11-17T08:50:52.002Z,72.38
2022-11-17T08:53:20.473Z,81.57
2022-11-17T08:55:47.595Z,52.95
2022-11-17T08:58:14.572Z,74.22
2022-11-17T09:00:42.489Z,63.30
2022-11-17T09:03:11.264Z,58.38
2022-11-17T09:05:44.250Z,75.63
2022-11-17T09:08:43.519Z,50.08
2022-11-17T09:10:59.378Z,39.38
2022-11-17T09:13:26.166Z,56.13
2022-11-17T09:15:53.230Z,33.65
2022-11-17T09:18:20.176Z,32.08
2022-11-17T09:20:47.355Z,30.35
2022-11-17T09:23:14.186Z,25.13
2022-11-17T09:25:41.090Z,22.63
2022-11-17T09:28:07.996Z,29.73
2022-11-17T09:30:34.795Z,29.60
2022-11-17T09:33:02.720Z,27.33
2022-11-17T09:35:29.540Z,26.35
2022-11-17T09:38:01.335Z,24.23
2022-11-17T09:40:34.640Z,29.17
2022-11-17T09:43:09.108Z,36.65
2022-11-17T09:45:39.020Z,32.08
2022-11-17T09:48:43.567Z,34.40
2022-11-17T09:51:15.022Z,28.70
2022-11-17T09:54:08.136Z,28.30
2022-11-17T09:56:35.392Z,25.75
2022-11-17T09:59:04.854Z,26.45
2022-11-17T10:01:31.810Z,33.65
2022-11-17T10:04:00.326Z,37.63
2022-11-17T10:06:30.044Z,31.50
2022-11-17T10:09:07.156Z,27.13
2022-11-17T10:11:38.183Z,27.77
2022-11-17T10:14:22.361Z,27.38
2022-11-17T10:16:54.727Z,23.20
2022-11-17T10:19:26.808Z,24.38
2022-11-17T10:22:16.744Z,22.45
2022-11-17T10:24:43.690Z,27.48
2022-11-17T10:27:29.055Z,27.63
2022-11-17T10:29:58.956Z,20.95
2022-11-17T10:32:27.954Z,27.42
2022-11-17T10:34:55.331Z,27.45
2022-11-17T10:37:30.434Z,33.08
2022-11-17T10:40:23.680Z,30.80
2022-11-17T10:43:05.505Z,30.50
2022-11-17T10:45:32.996Z,32.90
2022-11-17T10:48:17.018Z,35.95
2022-11-17T10:50:57.538Z,35.33
2022-11-17T10:53:30.888Z,36.10
2022-11-17T10:56:05.147Z,30.55
2022-11-17T10:58:33.842Z,27.65
2022-11-17T11:01:03.427Z,28.65
2022-11-17T11:03:35.463Z,29.52
2022-11-17T11:06:06.785Z,30.10
2022-11-17T11:08:42.242Z,30.98
2022-11-17T11:11:36.385Z,36.30
2022-11-17T11:14:18.403Z,28.05
2022-11-17T11:16:48.611Z,28.60
2022-11-17T11:19:18.124Z,23.30
2022-11-17T11:22:14.693Z,23.35
2022-11-17T11:25:03.738Z,23.60
2022-11-17T11:27:30.545Z,26.40
2022-11-17T11:30:05.379Z,29.08
2022-11-17T11:32:37.044Z,23.40
2022-11-17T11:35:27.896Z,27.85
2022-11-17T11:38:21.872Z,25.23
2022-11-17T11:41:13.623Z,25.02
2022-11-17T11:44:31.057Z,26.08
2022-11-17T11:47:22.001Z,30.80
2022-11-17T11:49:59.943Z,28.23
2022-11-17T11:52:38.332Z,29.45
2022-11-17T11:55:28.131Z,32.45
2022-11-17T11:58:02.073Z,27.35
2022-11-17T12:00:29.054Z,31.80
2022-11-17T12:03:06.919Z,31.85
2022-11-17T12:05:56.288Z,23.42
2022-11-17T12:09:05.836Z,29.20
2022-11-17T12:11:52.732Z,23.88
2022-11-17T12:14:20.025Z,19.88
2022-11-17T12:16:48.375Z,25.45
2022-11-17T12:19:53.512Z,24.27
2022-11-17T12:22:29.522Z,21.40
2022-11-17T12:25:04.586Z,25.17
2022-11-17T12:27:34.436Z,26.58
2022-11-17T12:30:23.677Z,22.08
2022-11-17T12:32:55.042Z,20.90
2022-11-17T12:35:36.066Z,19.25
2022-11-17T12:38:17.759Z,20.40
2022-11-17T12:40:47.642Z,20.58
2022-11-17T12:43:17.580Z,22.38
2022-11-17T12:45:53.557Z,22.02
2022-11-17T12:48:37.130Z,23.38
2022-11-17T12:51:15.901Z,23.98
2022-11-17T12:54:07.832Z,24.35
2022-11-17T12:56:40.730Z,22.42
2022-11-17T12:59:24.897Z,21.25
2022-11-17T13:02:13.594Z,20.33
2022-11-17T13:04:50.075Z,20.30
2022-11-17T13:07:28.315Z,22.95
2022-11-17T13:09:57.541Z,20.27
2022-11-17T13:12:29.773Z,21.65
2022-11-17T13:14:57.938Z,25.08
2022-11-17T13:17:38.869Z,27.75
2022-11-17T13:20:28.859Z,19.77
2022-11-17T13:23:06.796Z,20.25
2022-11-17T13:25:34.585Z,21.50
2022-11-17T13:28:04.747Z,20.13
2022-11-17T13:30:33.530Z,25.63
2022-11-17T13:33:03.845Z,22.33
2022-11-17T13:38:02.651Z,24.52
2022-11-17T13:40:30.631Z,21.58
2022-11-17T13:42:58.967Z,23.08
2022-11-17T13:45:26.194Z,25.75
2022-11-17T13:47:54.522Z,24.58
2022-11-17T13:50:27.445Z,25.17
2022-11-17T13:52:58.256Z,24.90
2022-11-17T13:55:27.510Z,23.98
2022-11-17T13:57:59.536Z,23.13
2022-11-17T14:00:29.246Z,27.35
2022-11-17T14:02:58.491Z,25.80
2022-11-17T14:05:30.245Z,28.23
2022-11-17T14:07:58.536Z,30.38
2022-11-17T14:10:25.518Z,29.13
2022-11-17T14:13:23.100Z,29.50
2022-11-17T14:15:59.387Z,24.90
2022-11-17T14:18:28.318Z,26.15
2022-11-17T14:21:14.147Z,27.08
2022-11-17T14:23:42.449Z,26.35
2022-11-17T14:26:24.664Z,27.70
2022-11-17T14:28:53.197Z,23.58
2022-11-17T14:31:20.325Z,31.17
2022-11-17T14:33:47.316Z,25.58
2022-11-17T14:36:16.724Z,35.20
2022-11-17T14:38:47.892Z,28.38
2022-11-17T14:41:17.193Z,27.95
2022-11-17T14:43:44.858Z,26.63
2022-11-17T14:46:20.282Z,30.80
2022-11-17T14:48:47.310Z,30.13
2022-11-17T14:51:16.314Z,27.25
2022-11-17T14:53:44.146Z,29.45
2022-11-17T14:56:16.933Z,22.88
2022-11-17T14:58:44.497Z,25.15
2022-11-17T15:01:20.077Z,25.77
2022-11-17T15:03:47.350Z,27.48
2022-11-17T15:06:19.367Z,30.63
2022-11-17T15:08:47.670Z,34.05
2022-11-17T15:11:17.686Z,32.95
2022-11-17T15:13:44.819Z,28.15
2022-11-17T15:16:12.295Z,30.88
2022-11-17T15:18:39.274Z,28.40
2022-11-17T15:21:08.866Z,28.15
2022-11-17T15:23:40.427Z,25.33
2022-11-17T15:26:10.536Z,29.02
2022-11-17T15:31:12.340Z,26.75
2022-11-17T15:33:43.433Z,27.00
2022-11-17T15:36:13.073Z,28.08
2022-11-17T15:38:40.419Z,28.42
2022-11-17T15:41:09.098Z,27.95
2022-11-17T15:43:38.147Z,27.13
2022-11-17T15:46:06.254Z,25.88
2022-11-17T15:48:40.244Z,26.15
2022-11-17T15:51:10.488Z,25.25
2022-11-17T15:53:41.640Z,27.48
2022-11-17T15:56:13.161Z,26.42
2022-11-17T15:58:42.311Z,26.52
2022-11-17T16:01:18.201Z,27.35
2022-11-17T16:03:45.956Z,27.70
2022-11-17T16:06:13.184Z,38.00
2022-11-17T16:08:40.450Z,42.65
2022-11-17T16:11:07.493Z,35.33
2022-11-17T16:13:34.682Z,29.15
2022-11-17T16:16:01.912Z,29.02
2022-11-17T16:18:28.879Z,27.02
2022-11-17T16:21:04.713Z,32.05
2022-11-17T16:23:41.755Z,26.25
2022-11-17T16:26:10.633Z,27.13
2022-11-17T16:28:39.079Z,28.65
2022-11-17T16:31:13.917Z,31.67
2022-11-17T16:33:41.019Z,35.33
2022-11-17T16:36:08.527Z,30.35
2022-11-17T16:38:35.479Z,32.05
2022-11-17T16:41:02.383Z,28.80
2022-11-17T16:43:29.347Z,26.13
2022-11-17T16:45:56.264Z,29.10
2022-11-17T16:48:23.462Z,33.60
2022-11-17T16:50:50.412Z,28.92
2022-11-17T16:53:17.395Z,28.70
2022-11-17T16:55:44.242Z,32.65
2022-11-17T16:58:11.817Z,34.70
2022-11-17T17:00:38.776Z,32.35
2022-11-17T17:03:05.705Z,34.30
2022-11-17T17:05:34.638Z,33.78
2022-11-17T17:08:01.512Z,34.33
2022-11-17T17:10:28.358Z,33.92
2022-11-17T17:12:55.250Z,34.60
2022-11-17T17:15:22.085Z,40.03
2022-11-17T17:17:49.116Z,35.20
2022-11-17T17:20:16.306Z,36.28
2022-11-17T17:22:43.311Z,38.53
2022-11-17T17:25:10.402Z,35.58
2022-11-17T17:27:37.233Z,37.22
2022-11-17T17:30:05.300Z,36.10
2022-11-17T17:32:32.254Z,37.15
2022-11-17T17:34:59.253Z,37.20
2022-11-17T17:37:26.131Z,40.83
2022-11-17T17:39:53.001Z,42.63
2022-11-17T17:42:20.638Z,38.90
2022-11-17T17:44:47.604Z,38.55
2022-11-17T17:47:14.561Z,37.70
2022-11-17T17:49:41.336Z,38.40
2022-11-17T17:52:12.538Z,37.72
2022-11-17T17:54:40.688Z,38.20
2022-11-17T17:57:08.009Z,40.97
2022-11-17T17:59:34.984Z,40.55
2022-11-17T18:02:02.725Z,44.40
2022-11-17T18:04:29.703Z,44.63
2022-11-17T18:06:57.659Z,51.42
2022-11-17T18:09:24.578Z,54.53
2022-11-17T18:11:51.667Z,52.00
2022-11-17T18:14:24.370Z,45.78
2022-11-17T18:16:52.141Z,45.83
2022-11-17T18:19:19.379Z,47.58
2022-11-17T18:21:46.658Z,49.25
2022-11-17T18:24:13.603Z,46.03
2022-11-17T18:26:41.475Z,49.45
2022-11-17T18:29:16.735Z,48.05
2022-11-17T18:31:46.895Z,44.42
2022-11-17T18:36:52.412Z,52.30
2022-11-17T18:39:20.025Z,56.03
2022-11-17T18:41:47.683Z,52.45
2022-11-17T18:44:17.230Z,48.42
2022-11-17T18:46:44.134Z,51.42
2022-11-17T18:49:11.167Z,46.55
2022-11-17T18:51:38.277Z,48.60
2022-11-17T18:54:05.227Z,53.67
2022-11-17T18:56:34.998Z,60.58
2022-11-17T18:59:02.543Z,56.55
2022-11-17T19:01:30.357Z,60.88
2022-11-17T19:04:00.993Z,57.33
2022-11-17T19:06:28.569Z,63.78
2022-11-17T19:08:57.529Z,57.83
2022-11-17T19:11:24.537Z,57.63
2022-11-17T19:13:52.431Z,57.45
2022-11-17T19:16:22.256Z,53.42
2022-11-17T19:18:51.723Z,58.13
2022-11-17T19:21:20.766Z,59.40
2022-11-17T19:23:52.550Z,55.85
2022-11-17T19:26:25.653Z,61.75
2022-11-17T19:29:11.200Z,60.33
2022-11-17T19:31:41.482Z,56.45
2022-11-17T19:34:08.406Z,64.78
2022-11-17T19:36:35.565Z,63.45
2022-11-17T19:39:03.775Z,66.63
2022-11-17T19:41:36.508Z,52.25
2022-11-17T19:44:05.475Z,45.10
2022-11-17T19:46:33.348Z,54.00
2022-11-17T19:49:00.346Z,51.83
2022-11-17T19:51:32.523Z,48.80
2022-11-17T19:54:03.092Z,55.47
2022-11-17T19:56:30.601Z,47.20
2022-11-17T19:58:58.054Z,50.72
2022-11-17T20:01:27.740Z,47.33
2022-11-17T20:03:56.370Z,49.67
2022-11-17T20:06:28.880Z,56.03
2022-11-17T20:08:57.608Z,59.67
2022-11-17T20:11:28.869Z,65.53
2022-11-17T20:13:56.251Z,63.13
2022-11-17T20:16:27.232Z,75.63
2022-11-17T20:18:56.716Z,90.25
2022-11-17T20:21:25.035Z,90.03
2022-11-17T20:23:52.493Z,91.65
2022-11-17T20:26:24.789Z,96.43
2022-11-17T20:28:52.526Z,82.35
2022-11-17T20:31:24.424Z,80.22
2022-11-17T20:33:53.851Z,103.00
2022-11-17T20:36:21.781Z,81.85
2022-11-17T20:38:57.390Z,91.80
2022-11-17T20:41:25.290Z,93.57
2022-11-17T20:43:53.994Z,67.30
2022-11-17T20:46:21.903Z,60.35
2022-11-17T20:48:50.061Z,59.00
2022-11-17T20:51:19.941Z,62.05
2022-11-17T20:53:46.874Z,71.25
2022-11-17T20:56:16.294Z,69.30
2022-11-17T20:58:43.532Z,83.35
2022-11-17T21:01:16.186Z,70.55
2022-11-17T21:03:43.464Z,83.78
2022-11-17T21:06:10.835Z,72.80
2022-11-17T21:08:40.560Z,97.80
2022-11-17T21:11:33.079Z,83.15
2022-11-17T21:14:00.148Z,107.28
2022-11-17T21:16:27.337Z,96.57
2022-11-17T21:18:54.370Z,89.72
2022-11-17T21:21:21.228Z,121.10
2022-11-17T21:23:48.339Z,124.65
2022-11-17T21:26:19.592Z,124.78
2022-11-17T21:28:47.621Z,122.93
2022-11-17T21:31:15.757Z,120.50
2022-11-17T21:33:43.635Z,125.53
2022-11-17T21:36:16.878Z,134.02
2022-11-17T21:38:45.171Z,126.53
2022-11-17T21:41:23.901Z,121.03
2022-11-17T21:43:52.527Z,134.23
2022-11-17T21:46:24.225Z,124.55
2022-11-17T21:48:52.551Z,123.90
2022-11-17T21:51:21.951Z,127.78
2022-11-17T21:53:53.460Z,135.68
2022-11-17T21:56:20.543Z,192.27
2022-11-17T21:58:47.570Z,298.67
2022-11-17T22:01:16.077Z,206.35
2022-11-17T22:03:43.801Z,144.93
2022-11-17T22:06:20.244Z,133.30
2022-11-17T22:08:48.147Z,161.80
2022-11-17T22:11:37.051Z,191.95
2022-11-17T22:14:24.536Z,152.10
2022-11-17T22:16:53.540Z,164.30
2022-11-17T22:19:22.056Z,245.98
2022-11-17T22:21:52.101Z,628.50
2022-11-17T22:26:46.662Z,181.57
2022-11-17T22:29:15.269Z,224.18
2022-11-17T22:31:42.505Z,139.60
2022-11-17T22:34:11.137Z,230.55
2022-11-17T22:36:38.415Z,152.52
2022-11-17T22:39:05.918Z,92.90
2022-11-17T22:41:32.761Z,100.65
2022-11-17T22:43:59.752Z,502.75
2022-11-17T22:46:28.380Z,183.50
2022-11-17T22:48:55.698Z,138.40
2022-11-17T22:51:40.953Z,546.67
2022-11-17T22:54:08.717Z,145.23
2022-11-17T22:56:35.857Z,229.77
2022-11-17T22:59:02.940Z,144.63
2022-11-17T23:01:29.752Z,148.35
2022-11-17T23:03:56.736Z,154.90
2022-11-17T23:06:24.396Z,136.75
2022-11-17T23:08:51.443Z,127.53
2022-11-17T23:11:36.420Z,135.50
2022-11-17T23:14:04.603Z,119.97
2022-11-17T23:16:33.163Z,115.53
2022-11-17T23:19:00.331Z,193.55
2022-11-17T23:21:27.383Z,130.20
2022-11-17T23:23:54.280Z,87.63
2022-11-17T23:26:22.450Z,318.15
2022-11-17T23:28:49.693Z,161.40
2022-11-17T23:31:17.890Z,352.17
2022-11-17T23:33:46.852Z,222.13
2022-11-17T23:36:18.806Z,109.60
2022-11-17T23:38:46.873Z,108.03
2022-11-17T23:41:16.295Z,101.43
2022-11-17T23:43:43.518Z,90.75
2022-11-17T23:46:16.222Z,84.63
2022-11-17T23:48:44.243Z,100.28
2022-11-17T23:51:13.492Z,106.07
2022-11-17T23:53:40.710Z,103.22
2022-11-17T23:56:08.509Z,92.45
2022-11-17T23:58:35.982Z,80.30
